Tiempo atmosférico en la estación meteorológica de Cabo Vilan, A Coruña (50 m.)



Fecha
DESCASC
Temp. máxima en grados centígrados (hora)
DESCASC
Temp. mínima en grados centígrados (hora)
DESCASC
Temp. media en grados centígrados
DESCASC
Racha de viento máxima en m/sg (hora)
DESCASC
Velocidad máxima media en intervalos de 10 minutos(hora)
DESCASC
Precipitaciones diarias en mm
DESCASC
Precipitaciones de 00:00 a 06:00 en mm
DESCASC
Precipitaciones de 06:00 a 12:00 en mm
DESCASC
Precipitaciones de 12:00 a 18:00 en mm
DESCASC
Precipitaciones de 18:00 a 24:00 en mm
DESCASC
14-12-2019 15 (13:30) 11.4 (23:20) 13.2 24.17 (22:40) 17.22 (21:30) 26.1 0.9 0.2 2.7 22.3
13-12-2019 14.4 (12:30) 12.9 (22:30) 13.6 16.67 (21:20) 11.39 (23:20) 2.8 2.3 0.3 0 0.2
12-12-2019 13.9 (15:50) 10.9 (00:00) 12.4 21.67 (06:50) 14.72 (09:40) 10.8 0.9 6.8 2.2 0.9
11-12-2019 13.4 (16:20) 8.6 (00:00) 11 16.67 (18:30) 10.28 (14:20) 7.7 3.1 0.1 0.5 4
10-12-2019 14.1 (22:50) 9.6 (00:00) 11.9 16.67 (22:50) 11.39 (18:50) 7.4 0 0 0 7.4
09-12-2019 14.5 (15:30) 9.7 (00:00) 12.1 6.11 (23:20) 5 (23:30) 0 0 0 0 0
08-12-2019 14.5 (10:20) 11.2 (00:00) 12.8 9.72 (02:30) 8.06 (02:30) 5.4 1.5 3.9 0 0
07-12-2019 13.4 (23:50) 12 (00:00) 12.7 12.5 (21:40) 8.89 (22:20) 0 0 0 0 0
06-12-2019 15 (15:10) 11.6 (00:00) 13.3 11.39 (02:20) 9.44 (02:20) 0 0 0 0 0
05-12-2019 12.8 (12:40) 11.8 (00:00) 12.3 19.44 (15:40) 16.11 (12:30) 0 0 0 0 0
04-12-2019 11.9 (23:59) 4.6 (00:00) 8.2 -- (--) -- (--) 0 0 0 0 0
03-12-2019 13.7 (16:40) 6.9 (00:00) 10.3 -- (--) -- (--) 0 0 0 0 0
02-12-2019 11.8 (00:40) 9.6 (00:00) 10.7 -- (--) -- (--) 0 0 0 0 0
01-12-2019 13.3 (13:20) 10.6 (00:00) 12 -- (--) -- (--) 4.6 4.5 0.1 0 0
30-11-2019 15.8 (00:10) 10.5 (00:00) 13.2 20.28 (01:10) 15.83 (01:10) 8.6 1.7 0 0.7 6.2
29-11-2019 17.1 (14:30) 12.2 (00:00) 14.7 19.17 (23:50) 15.28 (23:50) 2 0 0 0 2
28-11-2019 15.3 (15:20) 12.4 (00:00) 13.8 -- (--) -- (--) 12 0 1.2 10.8 0
27-11-2019 13.9 (12:30) 12.1 (00:00) 13 -- (--) -- (--) 3.8 1.1 0.5 2.2 0
26-11-2019 16.1 (01:00) 12.7 (00:00) 14.4 -- (--) -- (--) 5.3 0.6 0.7 3.3 0.7
25-11-2019 15.9 (13:50) 12.3 (00:00) 14.1 -- (--) -- (--) 5.9 3.8 0.1 0 2
24-11-2019 15.5 (19:40) 11.4 (00:00) 13.4 -- (--) -- (--) 5.7 0 0.8 4.9 0
23-11-2019 14.3 (13:10) 9.8 (00:00) 12.1 -- (--) -- (--) 3.7 0.9 2.1 0.7 0
22-11-2019 14.8 (08:20) 10.6 (00:00) 12.7 -- (--) -- (--) 31.3 13.1 11.6 5.6 1
21-11-2019 15.3 (14:50) 9.7 (00:00) 12.5 -- (--) -- (--) 0.1 0.1 0 0 0
20-11-2019 13.2 (14:30) 8.7 (00:00) 10.9 -- (--) -- (--) 16.4 0 10.4 0.5 5.5
19-11-2019 11.8 (16:50) 8.8 (00:00) 10.3 17.22 (12:10) 11.39 (12:00) 3.2 0.4 0.5 2.3 0
18-11-2019 14.8 (13:10) 9.9 (00:00) 12.3 -- (--) -- (--) 0.2 0.2 0 0 0
17-11-2019 13.5 (14:30) 10.1 (00:00) 11.8 -- (--) -- (--) 5.2 3.7 0.7 0 0.8
16-11-2019 13.4 (12:10) 10 (00:00) 11.7 -- (--) -- (--) 1 0 0 0.3 0.7

Gráficas

Temp. máximas Temp. mínimas Temp. medias Precipitaciones Rachas de viento máximas Velocidades máximas media en intervalos de 10 minutos

Datos horarios

Fecha y hora oficial Temperatura (ºC) Velocidad del viento (km/h) Dirección del viento Racha (km/h) Dirección de racha Precipitación (mm) Presión (hPa) Tendencia (hPa) Humedad (%)
2019-12-15 23:00:00 10.7 12 Sur 22 Sur 0 -- -- 93
2019-12-15 22:00:00 11.1 12 Sudoeste 26 Sudoeste 0.2 -- -- 93
2019-12-15 21:00:00 10.7 14 Sudoeste 30 Sudoeste 0.7 -- -- 92
2019-12-15 20:00:00 11.4 12 Sur 21 Sudoeste 0 -- -- 89
2019-12-15 19:00:00 11.5 18 Sudoeste 35 Sudoeste 0 -- -- 85
2019-12-15 18:00:00 11.6 26 Sudoeste 38 Sudoeste 0 -- -- 82
2019-12-15 17:00:00 12 30 Sudoeste 40 Sudoeste 0 -- -- 80
2019-12-15 16:00:00 12.3 30 Sudoeste 39 Sudoeste 0 -- -- 79
2019-12-15 15:00:00 12.5 27 Sudoeste 39 Sudoeste 0 -- -- 81
2019-12-15 14:00:00 12.6 26 Sudoeste 40 Sudoeste 0 -- -- 81
2019-12-15 13:00:00 12.4 31 Sudoeste 40 Sudoeste 0 -- -- 81
2019-12-15 12:00:00 12.2 25 Sudoeste 38 Sudoeste 0 -- -- 86
2019-12-15 11:00:00 11.8 22 Sudoeste 32 Sudoeste 0.1 -- -- 92
2019-12-15 10:00:00 11.5 20 Sudoeste 24 Sudoeste 0 -- -- 96
2019-12-15 09:00:00 10.7 19 Sudoeste 32 Oeste 0.5 -- -- 96
2019-12-15 08:00:00 11.2 16 Sudoeste 23 Sudoeste 0 -- -- 96
2019-12-15 07:00:00 11.1 15 Sudoeste 25 Sudoeste 0.1 -- -- 96
2019-12-15 06:00:00 11.2 18 Sur 26 Sudoeste 0.1 -- -- 96
2019-12-15 05:00:00 11.3 19 Sudoeste 33 Oeste 0.6 -- -- 96
2019-12-15 04:00:00 11.8 26 Sudoeste 34 Sudoeste 1.1 -- -- 96
2019-12-15 03:00:00 11.6 28 Sudoeste 45 Sudoeste 1.7 -- -- 96
2019-12-15 02:00:00 12.2 33 Sudoeste 49 Sudoeste 3.3 -- -- 96
2019-12-15 01:00:00 12 34 Sudoeste 47 Sudoeste 2.6 -- -- 96
2019-12-15 00:00:00 12.1 31 Sudoeste 49 Sudoeste 15.5 -- -- 96
2019-12-14 23:00:00 11.8 45 Sudoeste 87 Sur 5.3 -- -- 95
2019-12-14 22:00:00 14 60 Sudoeste 86 Sudoeste 0.9 -- -- 95
2019-12-14 21:00:00 14.1 60 Sudoeste 86 Sudoeste 0.1 -- -- 96
2019-12-14 20:00:00 14 57 Sudoeste 79 Sudoeste 0 -- -- 96
2019-12-14 19:00:00 13.4 51 Sudoeste 72 Sudoeste 0.5 -- -- 96
2019-12-14 18:00:00 13.7 56 Sudoeste 80 Sudoeste 0.4 -- -- 95
2019-12-14 17:00:00 13.9 59 Sudoeste 83 Sudoeste 1.2 -- -- 95
2019-12-14 16:00:00 14 56 Sudoeste 80 Sudoeste 0.7 -- -- 95
2019-12-14 15:00:00 14.2 54 Sudoeste 76 Sudoeste 0.1 -- -- 93
2019-12-14 14:00:00 14.1 52 Sudoeste 73 Sudoeste 0.1 -- -- 93
2019-12-14 13:00:00 14 48 Sudoeste 71 Sudoeste 0.2 -- -- 95
2019-12-14 12:00:00 14.5 50 Sudoeste 68 Sudoeste 0.2 -- -- 92
2019-12-14 11:00:00 13.7 44 Sudoeste 60 Sudoeste 0 -- -- 92
2019-12-14 10:00:00 13.5 42 Sudoeste 56 Sudoeste 0 -- -- 94
2019-12-14 09:00:00 12.8 36 Sudoeste 50 Sudoeste 0 -- -- 95
2019-12-14 08:00:00 13.2 40 Sudoeste 51 Sudoeste 0 -- -- 96
2019-12-14 07:00:00 12.8 36 Sudoeste 52 Sudoeste 0 -- -- 96
2019-12-14 06:00:00 12.6 33 Sudoeste 50 Sudoeste 0 -- -- 96
2019-12-14 05:00:00 13.4 35 Sudoeste 53 Sudoeste 0 -- -- 96
2019-12-14 04:00:00 13.3 36 Sudoeste 49 Sudoeste 0.3 -- -- 96
2019-12-14 03:00:00 13.2 37 Sudoeste 55 Sudoeste 0.3 -- -- 95
2019-12-14 02:00:00 13.2 37 Sudoeste 52 Sudoeste 0.3 -- -- 95
2019-12-14 01:00:00 13.2 33 Sudoeste 47 Sudoeste 0 -- -- 95
2019-12-14 00:00:00 13.1 39 Sudoeste 52 Sudoeste 0 -- -- 95
2019-12-13 23:00:00 13 35 Sudoeste 50 Sudoeste 0.2 -- -- 95
2019-12-13 22:00:00 13 40 Sudoeste 60 Sudoeste 0 -- -- 94
2019-12-13 21:00:00 13.2 39 Sudoeste 51 Sudoeste 0 -- -- 93
2019-12-13 20:00:00 13.1 35 Sudoeste 47 Sur 0 -- -- 92
2019-12-13 19:00:00 13.3 34 Sudoeste 53 Sudoeste 0 -- -- 91
2019-12-13 18:00:00 13.3 35 Sudoeste 51 Sudoeste 0 -- -- 91
2019-12-13 17:00:00 13.6 35 Sudoeste 46 Sudoeste 0 -- -- 95
2019-12-13 16:00:00 13.7 36 Sudoeste 45 Sudoeste 0 -- -- 96
2019-12-13 15:00:00 13.9 35 Sudoeste 43 Sudoeste 0 -- -- 96
2019-12-13 14:00:00 14.1 30 Sudoeste 36 Sudoeste 0 -- -- 96
2019-12-13 13:00:00 14 28 Sudoeste 42 Sudoeste 0 -- -- 97
2019-12-13 12:00:00 14 32 Sudoeste 46 Sudoeste 0.1 -- -- 97
2019-12-13 11:00:00 13.8 27 Sudoeste 43 Sudoeste 0 -- -- 97
2019-12-13 10:00:00 13.6 27 Sudoeste 40 Sudoeste 0 -- -- 97
2019-12-13 09:00:00 13.6 30 Sudoeste 39 Sudoeste 0 -- -- 97
2019-12-13 08:00:00 13.6 29 Sudoeste 41 Sudoeste 0.2 -- -- 97
2019-12-13 07:00:00 13.6 32 Sudoeste 51 Sudoeste 0 -- -- 97
2019-12-13 06:00:00 13.6 31 Sudoeste 44 Sudoeste 0.2 -- -- 97
2019-12-13 05:00:00 13.5 34 Sudoeste 45 Sudoeste 0.2 -- -- 97
2019-12-13 04:00:00 13.6 32 Sudoeste 46 Sudoeste 0.3 -- -- 97
2019-12-13 03:00:00 13.5 36 Sudoeste 46 Sudoeste 0 -- -- 97
2019-12-13 02:00:00 13.5 36 Sudoeste 49 Sudoeste 0.9 -- -- 97
2019-12-13 01:00:00 13.6 36 Sudoeste 51 Sudoeste 0.7 -- -- 97
2019-12-13 00:00:00 13.7 36 Sudoeste 53 Oeste 0 -- -- 97
2019-12-12 23:00:00 13.7 39 Sudoeste 53 Sudoeste 0.1 -- -- 97
2019-12-12 22:00:00 13.7 36 Sudoeste 46 Sudoeste 0.1 -- -- 97
2019-12-12 21:00:00 13.7 34 Sudoeste 43 Sudoeste 0.3 -- -- 97
2019-12-12 20:00:00 13.7 31 Sudoeste 47 Oeste 0.2 -- -- 97
2019-12-12 19:00:00 13.8 35 Oeste 51 Oeste 0.2 -- -- 97
2019-12-12 18:00:00 13.8 37 Oeste 51 Oeste 0.3 -- -- 97
2019-12-12 17:00:00 13.8 37 Oeste 55 Oeste 0 -- -- 97
2019-12-12 16:00:00 13.8 40 Oeste 56 Oeste 0.1 -- -- 97
2019-12-12 15:00:00 13.8 43 Oeste 63 Oeste 0.6 -- -- 97
2019-12-12 14:00:00 13.6 46 Oeste 63 Oeste 0.4 -- -- 97
2019-12-12 13:00:00 13.4 47 Sudoeste 71 Sudoeste 0.8 -- -- 97
2019-12-12 12:00:00 13 51 Sudoeste 72 Sudoeste 0.5 -- -- 97
2019-12-12 11:00:00 12.7 50 Sudoeste 66 Sudoeste 1.6 -- -- 96
2019-12-12 10:00:00 12.4 48 Sudoeste 69 Sudoeste 1.8 -- -- 96
2019-12-12 09:00:00 12.1 44 Sudoeste 63 Sudoeste 1.8 -- -- 95
2019-12-12 08:00:00 12.3 43 Sudoeste 62 Sudoeste 0.3 -- -- 94
2019-12-12 07:00:00 11.6 49 Sudoeste 78 Sudoeste 0.8 -- -- 92
2019-12-12 06:00:00 12.2 39 Sudoeste 53 Sudoeste 0.1 -- -- 90
2019-12-12 05:00:00 11.4 40 Sudoeste 61 Oeste 0.2 -- -- 92
2019-12-12 04:00:00 11.8 41 Sudoeste 58 Oeste 0.2 -- -- 92
2019-12-12 03:00:00 11.7 35 Sudoeste 64 Oeste 0.2 -- -- 94
2019-12-12 02:00:00 11.7 37 Sudoeste 59 Sudoeste 0.2 -- -- 93
2019-12-12 01:00:00 11.6 26 Sudoeste 43 Sudoeste 0 -- -- 95
2019-12-12 00:00:00 10.9 22 Sudoeste 43 Oeste 1.2 -- -- 93
2019-12-11 23:00:00 11.1 31 Oeste 48 Oeste 1.7 -- -- 92
2019-12-11 22:00:00 12.1 27 Oeste 41 Sudoeste 0 -- -- 88
2019-12-11 21:00:00 11.4 25 Oeste 42 Sudoeste 0.1 -- -- 88
2019-12-11 20:00:00 11.6 28 Oeste 51 Oeste 0.5 -- -- 88
2019-12-11 19:00:00 12.1 31 Oeste 60 Oeste 0.5 -- -- 86
2019-12-11 18:00:00 12.4 24 Oeste 37 Oeste 0 -- -- 80
2019-12-11 17:00:00 12.8 25 Oeste 37 Oeste 0 -- -- 79
2019-12-11 16:00:00 12.8 27 Oeste 40 Oeste 0 -- -- 81
2019-12-11 15:00:00 11.8 27 Oeste 51 Oeste 0.2 -- -- 85
2019-12-11 14:00:00 13.1 29 Sudoeste 42 Oeste 0.1 -- -- 81
2019-12-11 13:00:00 11.8 31 Oeste 44 Oeste 0.2 -- -- 77
2019-12-11 12:00:00 11.2 26 Sudoeste 47 Oeste 0.1 -- -- 78
2019-12-11 11:00:00 11.7 24 Oeste 37 Oeste 0 -- -- 71
2019-12-11 10:00:00 10.7 20 Oeste 33 Noroeste 0 -- -- 72
2019-12-11 09:00:00 10.4 22 Oeste 32 Noroeste 0 -- -- 71
2019-12-11 08:00:00 10.1 23 Noroeste 35 Noroeste 0 -- -- 72
2019-12-11 07:00:00 9.9 22 Noroeste 50 Noroeste 0 -- -- 76
2019-12-11 06:00:00 10.1 27 Noroeste 42 Noroeste 0 -- -- 71
2019-12-11 05:00:00 10.4 25 Noroeste 35 Noroeste 0 -- -- 78
2019-12-11 04:00:00 10.2 24 Noroeste 46 Noroeste 0.5 -- -- 95
2019-12-11 03:00:00 8.9 7 Este 20 Nordeste 0.2 -- -- 97
2019-12-11 02:00:00 9 15 Nordeste 39 Norte 1.6 -- -- 97
2019-12-11 01:00:00 10.3 28 Norte 36 Norte 0.8 -- -- 97
2019-12-11 00:00:00 10.7 32 Norte 46 Norte 0.7 -- -- 97
2019-12-10 23:00:00 11.7 34 Norte 60 Sudoeste 4 -- -- 96
2019-12-10 22:00:00 12.9 34 Sur 52 Sur 1.4 -- -- 96
2019-12-10 21:00:00 12.8 37 Sur 53 Sur 0.6 -- -- 96
2019-12-10 20:00:00 12.7 34 Sur 51 Sur 0.6 -- -- 95
2019-12-10 19:00:00 12.5 39 Sur 57 Sur 0.1 -- -- 95
2019-12-10 18:00:00 12.5 37 Sur 50 Sur 0 -- -- 94
2019-12-10 17:00:00 12.3 37 Sur 52 Sur 0 -- -- 91
2019-12-10 16:00:00 12.7 38 Sur 51 Sur 0 -- -- 84
2019-12-10 15:00:00 14 36 Sur 53 Sur 0 -- -- 84
2019-12-10 14:00:00 12.9 36 Sur 50 Sur 0 -- -- 84
2019-12-10 13:00:00 12.6 33 Sur 45 Sur 0 -- -- 87
2019-12-10 12:00:00 12.5 28 Sur 41 Sur 0 -- -- 87
2019-12-10 11:00:00 12.3 28 Sur 43 Sur 0 -- -- 86
2019-12-10 10:00:00 12.1 31 Sur 42 Sur 0 -- -- 86
2019-12-10 09:00:00 11.2 23 Sur 35 Sur 0 -- -- 85
2019-12-10 08:00:00 10.6 24 Sur 31 Sur 0 -- -- 86
2019-12-10 07:00:00 10.8 21 Sur 28 Sur 0 -- -- 88
2019-12-10 06:00:00 10.5 20 Sur 28 Sudoeste 0 -- -- 92
2019-12-10 05:00:00 10.1 21 Sur 26 Sur 0 -- -- 92
2019-12-10 04:00:00 10.3 18 Sur 23 Sur 0 -- -- 89
2019-12-10 03:00:00 10.2 14 Sur 18 Sur 0 -- -- 88
2019-12-10 02:00:00 10.5 11 Sur 15 Sur 0 -- -- 90
2019-12-10 01:00:00 10.3 9 Sudoeste 14 Sur 0 -- -- 91
2019-12-10 00:00:00 9.9 11 Sudeste 22 Sudeste 0 -- -- 93
2019-12-09 23:00:00 10.1 14 Sudeste 18 Sudeste 0 -- -- 94
2019-12-09 22:00:00 10.1 10 Sudeste 13 Sudeste 0 -- -- 94
2019-12-09 21:00:00 10.5 10 Sudeste 15 Sudeste 0 -- -- 94
2019-12-09 20:00:00 10.8 10 Sudeste 14 Sudeste 0 -- -- 93
2019-12-09 19:00:00 11.4 6 Sudoeste 9 Sudoeste 0 -- -- 92
2019-12-09 18:00:00 12 6 Sudoeste 10 Sudoeste 0 -- -- 88
2019-12-09 17:00:00 13.5 2 Oeste 6 Noroeste 0 -- -- 82
2019-12-09 16:00:00 14 4 Oeste 8 Oeste 0 -- -- 81
2019-12-09 15:00:00 14.1 5 Sudoeste 10 Sudoeste 0 -- -- 85
2019-12-09 14:00:00 13.6 2 Sudoeste 6 Sudoeste 0 -- -- 87
2019-12-09 13:00:00 13.7 5 Sur 9 Sur 0 -- -- 87
2019-12-09 12:00:00 13.2 4 Sur 6 Sur 0 -- -- 89
2019-12-09 11:00:00 12.7 2 Sur 5 Norte 0 -- -- 88
2019-12-09 10:00:00 12.4 2 Noroeste 9 Noroeste 0 -- -- 87
2019-12-09 09:00:00 12.2 2 Noroeste 6 Noroeste 0 -- -- 87
2019-12-09 08:00:00 12.3 0 Calma 6 Oeste 0 -- -- 87
2019-12-09 07:00:00 12.2 5 Oeste 15 Noroeste 0 -- -- 86
2019-12-09 06:00:00 12.3 8 Noroeste 17 Noroeste 0 -- -- 86
2019-12-09 05:00:00 12.1 10 Noroeste 18 Oeste 0 -- -- 88
2019-12-09 04:00:00 11.9 10 Oeste 19 Oeste 0 -- -- 87
2019-12-09 03:00:00 11.9 9 Oeste 19 Oeste 0 -- -- 87
2019-12-09 02:00:00 11.8 11 Oeste 18 Oeste 0 -- -- 86
2019-12-09 01:00:00 11.4 6 Sudoeste 17 Oeste 0 -- -- 84
2019-12-09 00:00:00 11.8 7 Oeste 14 Noroeste 0 -- -- 84
2019-12-08 23:00:00 11.4 9 Oeste 15 Noroeste 0 -- -- 83
2019-12-08 22:00:00 11.5 4 Oeste 14 Noroeste 0 -- -- 81
2019-12-08 21:00:00 11.6 11 Noroeste 17 Noroeste 0 -- -- 82
2019-12-08 20:00:00 11.2 12 Noroeste 21 Norte 0 -- -- 87
2019-12-08 19:00:00 11.7 17 Norte 23 Norte 0 -- -- 89
2019-12-08 18:00:00 12.4 9 Norte 14 Norte 0 -- -- 87
2019-12-08 17:00:00 13.4 4 Nordeste 9 Nordeste 0 -- -- 88
2019-12-08 16:00:00 13.3 9 Nordeste 13 Nordeste 0 -- -- 91
2019-12-08 15:00:00 13.3 12 Nordeste 22 Norte 0 -- -- 94
2019-12-08 14:00:00 13.1 20 Norte 24 Norte 0 -- -- 95
2019-12-08 13:00:00 13.1 17 Norte 22 Norte 0 -- -- 96
2019-12-08 12:00:00 13.9 12 Norte 23 Norte 0 -- -- 96
2019-12-08 11:00:00 14.3 8 Noroeste 17 Sur 0.8 -- -- 96
2019-12-08 10:00:00 14.4 12 Sur 21 Sur 0.8 -- -- 96
2019-12-08 09:00:00 13.5 19 Sur 29 Sur 0.4 -- -- 96
2019-12-08 08:00:00 13.7 22 Sur 34 Sur 1.6 -- -- 96
2019-12-08 07:00:00 13.6 23 Sur 33 Sur 0.3 -- -- 96
2019-12-08 06:00:00 13.7 23 Sur 31 Sur 1.1 -- -- 96
2019-12-08 05:00:00 13.7 21 Sur 28 Sur 0 -- -- 96
2019-12-08 04:00:00 14.1 22 Sur 35 Sur 0.2 -- -- 96
2019-12-08 03:00:00 13.9 28 Sudoeste 35 Sudoeste 0 -- -- 96
2019-12-08 02:00:00 13.9 27 Sudoeste 35 Sudoeste 0 -- -- 95
2019-12-08 01:00:00 13.6 20 Sur 27 Sur 0.2 -- -- 95
2019-12-08 00:00:00 13.4 20 Sur 35 Sur 0 -- -- 95
2019-12-07 23:00:00 13.3 28 Sur 42 Sur 0 -- -- 95
2019-12-07 22:00:00 13.2 29 Sur 45 Sur 0 -- -- 95
2019-12-07 21:00:00 13 28 Sur 40 Sur 0 -- -- 95
2019-12-07 20:00:00 12.8 26 Sur 37 Sur 0 -- -- 95
2019-12-07 19:00:00 12.8 28 Sur 40 Sur 0 -- -- 95
2019-12-07 18:00:00 12.6 29 Sur 40 Sur 0 -- -- 95
2019-12-07 17:00:00 12.8 26 Sur 37 Sur 0 -- -- 95
2019-12-07 16:00:00 12.9 24 Sur 36 Sur 0 -- -- 95
2019-12-07 15:00:00 13 27 Sur 36 Sur 0 -- -- 95
2019-12-07 14:00:00 13.1 26 Sur 33 Sur 0 -- -- 95
2019-12-07 13:00:00 13.1 25 Sur 31 Sur 0 -- -- 95
2019-12-07 12:00:00 13 23 Sur 31 Sur 0 -- -- 95
2019-12-07 11:00:00 12.8 21 Sur 26 Sur 0 -- -- 95
2019-12-07 10:00:00 12.6 19 Sur 26 Sur 0 -- -- 95
2019-12-07 09:00:00 12.4 19 Sur 27 Sur 0 -- -- 95
2019-12-07 08:00:00 12.2 20 Sur 27 Sur 0 -- -- 95
2019-12-07 07:00:00 12.4 19 Sur 29 Sur 0 -- -- 95
2019-12-07 06:00:00 12.1 23 Sur 30 Sur 0 -- -- 95
2019-12-07 05:00:00 12.1 21 Sur 27 Sur 0 -- -- 95
2019-12-07 04:00:00 12 19 Sur 32 Sur 0 -- -- 95
2019-12-07 03:00:00 12.5 14 Sur 19 Sur 0 -- -- 94
2019-12-07 02:00:00 12.8 15 Sur 20 Sur 0 -- -- 93
2019-12-07 01:00:00 12.6 15 Sur 20 Sur 0 -- -- 91
2019-12-07 00:00:00 12.3 16 Sur 18 Sur 0 -- -- 88
2019-12-06 23:00:00 12.4 12 Sur 16 Sur 0 -- -- 88
2019-12-06 22:00:00 12.1 13 Sur 16 Sur 0 -- -- 88
2019-12-06 21:00:00 11.6 12 Sur 15 Sur 0 -- -- 88
2019-12-06 20:00:00 12 11 Sur 14 Sur 0 -- -- 87
2019-12-06 19:00:00 11.7 12 Sur 14 Sur 0 -- -- 84
2019-12-06 18:00:00 12.4 8 Sur 14 Sur 0 -- -- 77
2019-12-06 17:00:00 13.8 8 Sudoeste 12 Sudoeste 0 -- -- 74
2019-12-06 16:00:00 14.3 8 Sudoeste 14 Sudoeste 0 -- -- 74
2019-12-06 15:00:00 14.9 5 Sudoeste 9 Sudoeste 0 -- -- 77
2019-12-06 14:00:00 13.5 4 Oeste 8 Oeste 0 -- -- 80
2019-12-06 13:00:00 13.7 4 Norte 8 Norte 0 -- -- 82
2019-12-06 12:00:00 13.7 4 Norte 11 Nordeste 0 -- -- 88
2019-12-06 11:00:00 12.5 9 Norte 14 Norte 0 -- -- 91
2019-12-06 10:00:00 12.2 13 Norte 25 Norte 0 -- -- 92
2019-12-06 09:00:00 12.1 18 Norte 28 Norte 0 -- -- 93
2019-12-06 08:00:00 12.3 10 Nordeste 18 Norte 0 -- -- 92
2019-12-06 07:00:00 11.8 4 Norte 11 Este 0 -- -- 91
2019-12-06 06:00:00 12.1 7 Nordeste 16 Este 0 -- -- 92
2019-12-06 05:00:00 12.1 12 Nordeste 33 Nordeste 0 -- -- 93
2019-12-06 04:00:00 12.5 24 Nordeste 32 Nordeste 0 -- -- 92
2019-12-06 03:00:00 12.4 27 Nordeste 41 Nordeste 0 -- -- 91
2019-12-06 02:00:00 12.5 31 Nordeste 41 Nordeste 0 -- -- 92
2019-12-06 01:00:00 12.8 27 Nordeste 37 Nordeste 0 -- -- 91
2019-12-06 00:00:00 12.7 21 Nordeste 41 Nordeste 0 -- -- 88
2019-12-05 23:00:00 12.7 31 Nordeste 45 Nordeste 0 -- -- 91
2019-12-05 22:00:00 12.5 39 Nordeste 46 Nordeste 0 -- -- 90
2019-12-05 21:00:00 12.6 36 Nordeste 48 Nordeste 0 -- -- 88
2019-12-05 20:00:00 12.4 33 Nordeste 60 Nordeste 0 -- -- 87
2019-12-05 19:00:00 12.3 44 Nordeste 62 Nordeste 0 -- -- 85
2019-12-05 18:00:00 12.3 48 Nordeste 64 Nordeste 0 -- -- 82
2019-12-05 17:00:00 12.3 41 Nordeste 63 Norte 0 -- -- 81
2019-12-05 16:00:00 12.4 41 Nordeste 70 Nordeste 0 -- -- 81
2019-12-05 15:00:00 12.4 55 Nordeste 67 Nordeste 0 -- -- 78
2019-12-05 14:00:00 12.4 55 Nordeste 66 Nordeste 0 -- -- 77
2019-12-05 13:00:00 12.3 52 Nordeste 67 Nordeste 0 -- -- 76
2019-12-05 12:00:00 12.4 51 Nordeste 66 Nordeste 0 -- -- 75
2019-12-05 11:00:00 12.4 53 Nordeste 66 Nordeste 0 -- -- 76
2019-12-05 10:00:00 12.4 50 Nordeste 61 Nordeste 0 -- -- 77
2019-12-05 09:00:00 12.5 49 Nordeste 64 Nordeste 0 -- -- 78
2019-12-05 08:00:00 12.6 35 Nordeste 60 Nordeste 0 -- -- 77
2019-12-05 07:00:00 12.3 33 Nordeste 60 Nordeste 0 -- -- 76
2019-12-05 06:00:00 12.6 53 Nordeste 67 Nordeste 0 -- -- 76
2019-12-05 05:00:00 12.6 50 Nordeste 62 Nordeste 0 -- -- 72
2019-12-05 04:00:00 12.4 51 Nordeste 60 Nordeste 0 -- -- 71
2019-12-05 03:00:00 12 32 Nordeste 48 Nordeste 0 -- -- 75
2019-12-05 02:00:00 12.1 32 Nordeste 50 Este 0 -- -- 76
2019-12-05 01:00:00 12.2 30 Nordeste 55 Nordeste 0 -- -- 77
2019-12-05 00:00:00 11.9 27 Nordeste 44 Nordeste 0 -- -- 78
2019-12-04 23:00:00 11.4 30 Nordeste 55 Nordeste 0 -- -- 74
2019-12-04 22:00:00 11.5 41 Nordeste 55 Nordeste 0 -- -- 72
2019-12-04 21:00:00 11.3 40 Nordeste 50 Nordeste 0 -- -- 70
2019-12-04 20:00:00 11 42 Nordeste 48 Nordeste 0 -- -- 71
2019-12-04 19:00:00 11 38 Nordeste 45 Nordeste 0 -- -- 71
2019-12-04 18:00:00 11 35 Nordeste 48 Nordeste 0 -- -- 69
2019-12-04 17:00:00 11.2 24 Nordeste 40 Nordeste 0 -- -- 68
2019-12-04 16:00:00 10.8 22 Nordeste 39 Nordeste 0 -- -- 62
2019-12-04 15:00:00 10.5 24 Nordeste 40 Nordeste 0 -- -- 62
2019-12-04 14:00:00 10.1 30 Nordeste 37 Nordeste 0 -- -- 70
2019-12-04 13:00:00 10.1 21 Nordeste 26 Nordeste 0 -- -- 76
2019-12-04 12:00:00 10.3 11 Norte 16 Norte 0 -- -- 76
2019-12-04 11:00:00 8.3 8 Este 17 Este 0 -- -- 81
2019-12-04 10:00:00 6.3 8 Este 15 Este 0 -- -- 83
2019-12-04 09:00:00 4.9 13 Este 18 Sudeste 0 -- -- 83
2019-12-04 08:00:00 5.3 17 Sudeste 20 Sudeste 0 -- -- 82
2019-12-04 07:00:00 5.6 10 Sudeste 19 Sudeste 0 -- -- 79
2019-12-04 06:00:00 6.1 15 Sudeste 21 Sudeste 0 -- -- 78
2019-12-04 05:00:00 8 11 Sur 17 Sur 0 -- -- 76
2019-12-04 04:00:00 7.9 12 Sur 18 Sur 0 -- -- 75
2019-12-04 03:00:00 6.6 12 Sur 19 Sudeste 0 -- -- 78
2019-12-04 02:00:00 6.1 15 Sudeste 18 Sudeste 0 -- -- 78
2019-12-04 01:00:00 5.8 13 Sudeste 16 Sudeste 0 -- -- 78
2019-12-04 00:00:00 6.9 8 Este 14 Este 0 -- -- 75
2019-12-03 23:00:00 6.9 9 Sudeste 12 Sudeste 0 -- -- 75
2019-12-03 22:00:00 7.2 7 Sudeste 10 Sudeste 0 -- -- 72
2019-12-03 21:00:00 8.2 9 Sudeste 13 Sudeste 0 -- -- 69
2019-12-03 20:00:00 9.4 7 Sur 9 Sur 0 -- -- 68
2019-12-03 19:00:00 10.1 4 Sudoeste 7 Sudoeste 0 -- -- 65
2019-12-03 18:00:00 10.4 6 Sudoeste 12 Sudoeste 0 -- -- 61
2019-12-03 17:00:00 12.6 8 Sudoeste 14 Sudoeste 0 -- -- 53
2019-12-03 16:00:00 13.3 8 Este 16 Este 0 -- -- 49
2019-12-03 15:00:00 12.9 9 Este 18 Este 0 -- -- 51
2019-12-03 14:00:00 12.7 12 Este 26 Nordeste 0 -- -- 53
2019-12-03 13:00:00 11.5 12 Este 34 Este 0 -- -- 57
2019-12-03 12:00:00 10.2 18 Este 40 Nordeste 0 -- -- 58
2019-12-03 11:00:00 9.3 18 Nordeste 39 Este 0 -- -- 61
2019-12-03 10:00:00 8.6 27 Nordeste 51 Nordeste 0 -- -- 62
2019-12-03 09:00:00 8 18 Nordeste 40 Nordeste 0 -- -- 63
2019-12-03 08:00:00 8.8 29 Nordeste 51 Nordeste 0 -- -- 63
2019-12-03 07:00:00 8.7 26 Nordeste 53 Nordeste 0 -- -- 65
2019-12-03 06:00:00 9 32 Nordeste 50 Nordeste 0 -- -- 64
2019-12-03 05:00:00 8.9 19 Nordeste 39 Este 0 -- -- 64
2019-12-03 04:00:00 8.9 21 Nordeste 42 Este 0 -- -- 65
2019-12-03 03:00:00 9.1 21 Nordeste 42 Nordeste 0 -- -- 67
2019-12-03 02:00:00 9.2 23 Nordeste 49 Este 0 -- -- 65
2019-12-03 01:00:00 9.4 32 Nordeste 62 Nordeste 0 -- -- 65
2019-12-03 00:00:00 9.6 33 Nordeste 55 Nordeste 0 -- -- 66
2019-12-02 23:00:00 9.9 34 Nordeste 57 Nordeste 0 -- -- 65
2019-12-02 22:00:00 10 34 Nordeste 54 Nordeste 0 -- -- 67
2019-12-02 21:00:00 10 27 Nordeste 60 Nordeste 0 -- -- 66
2019-12-02 20:00:00 10.3 30 Nordeste 58 Nordeste 0 -- -- 64
2019-12-02 19:00:00 10.6 35 Nordeste 60 Nordeste 0 -- -- 64
2019-12-02 18:00:00 10.7 37 Nordeste 75 Nordeste 0 -- -- 64
2019-12-02 17:00:00 11.3 50 Nordeste 87 Nordeste 0 -- -- 64
2019-12-02 16:00:00 11.3 67 Nordeste 85 Nordeste 0 -- -- 64
2019-12-02 15:00:00 11.4 65 Nordeste 81 Nordeste 0 -- -- 62
2019-12-02 14:00:00 11.5 45 Nordeste 80 Nordeste 0 -- -- 60
2019-12-02 13:00:00 11.4 58 Nordeste 84 Nordeste 0 -- -- 66
2019-12-02 12:00:00 11.4 68 Nordeste 88 Nordeste 0 -- -- 67
2019-12-02 11:00:00 11.3 75 Nordeste 87 Nordeste 0 -- -- 70
2019-12-02 10:00:00 11.2 71 Nordeste 85 Nordeste 0 -- -- 71
2019-12-02 09:00:00 11.3 67 Nordeste 83 Nordeste 0 -- -- 74
2019-12-02 08:00:00 11.4 69 Nordeste 84 Nordeste 0 -- -- 72
2019-12-02 07:00:00 11.2 67 Nordeste 82 Nordeste 0 -- -- 72
2019-12-02 06:00:00 11.5 63 Nordeste 78 Nordeste 0 -- -- 74
2019-12-02 05:00:00 11.5 64 Nordeste 81 Nordeste 0 -- -- 70
2019-12-02 04:00:00 11.5 64 Nordeste 88 Nordeste 0 -- -- 69
2019-12-02 03:00:00 11.6 70 Nordeste 91 Nordeste 0 -- -- 65
2019-12-02 02:00:00 11.1 68 Nordeste 83 Nordeste 0 -- -- 73
2019-12-02 01:00:00 11.3 71 Nordeste 86 Nordeste 0 -- -- 70
2019-12-02 00:00:00 11.5 67 Nordeste 87 Nordeste 0 -- -- 76
2019-12-01 23:00:00 11.8 63 Nordeste 81 Norte 0 -- -- 74
2019-12-01 22:00:00 11.7 64 Nordeste 78 Nordeste 0 -- -- 72
2019-12-01 21:00:00 11.7 62 Nordeste 76 Nordeste 0 -- -- 77
2019-12-01 20:00:00 12 58 Nordeste 79 Nordeste 0 -- -- 75
2019-12-01 19:00:00 11.8 67 Nordeste 81 Nordeste 0 -- -- 77
2019-12-01 18:00:00 11.7 63 Nordeste 80 Nordeste 0 -- -- 73
2019-12-01 17:00:00 12 63 Nordeste 78 Nordeste 0 -- -- 75
2019-12-01 16:00:00 12.1 59 Nordeste 76 Nordeste 0 -- -- 81
2019-12-01 15:00:00 12.5 53 Nordeste 66 Nordeste 0 -- -- 84
2019-12-01 14:00:00 13.1 51 Nordeste 65 Nordeste 0 -- -- 84
2019-12-01 13:00:00 12.5 48 Nordeste 64 Nordeste 0 -- -- 87
2019-12-01 12:00:00 12.5 47 Nordeste 56 Nordeste 0 -- -- 87
2019-12-01 11:00:00 11.7 35 Nordeste 66 Nordeste 0 -- -- 88
2019-12-01 10:00:00 11.4 58 Nordeste 69 Nordeste 0 -- -- 89
2019-12-01 09:00:00 11.8 54 Norte 64 Norte 0 -- -- 94
2019-12-01 08:00:00 11.4 41 Nordeste 58 Nordeste 0.1 -- -- 93
2019-12-01 07:00:00 11.3 42 Nordeste 50 Nordeste 0 -- -- 93
2019-12-01 06:00:00 11.3 21 Nordeste 30 Nordeste 0 -- -- 95
2019-12-01 05:00:00 10.9 21 Nordeste 59 Nordeste 0 -- -- 95
2019-12-01 04:00:00 10.8 11 Este 19 Sur 0.1 -- -- 95
2019-12-01 03:00:00 11.4 16 Sur 40 Sudoeste 0 -- -- 95
2019-12-01 02:00:00 11.5 24 Sudoeste 51 Oeste 0.7 -- -- 95
2019-12-01 01:00:00 12.1 27 Sudoeste 57 Sudoeste 3.7 -- -- 95
2019-12-01 00:00:00 12.1 39 Sudoeste 64 Sudoeste 1.4 -- -- 95
2019-11-30 23:00:00 11.4 29 Sur 49 Sur 2.7 -- -- 94
2019-11-30 22:00:00 10.7 37 Sur 55 Sudoeste 1.5 -- -- 92
2019-11-30 21:00:00 11.7 39 Sudoeste 58 Sudoeste 0.6 -- -- 92
2019-11-30 20:00:00 12.4 33 Sudoeste 49 Sudoeste 0 -- -- 91
2019-11-30 19:00:00 11.9 36 Sudoeste 48 Sudoeste 0 -- -- 90
2019-11-30 18:00:00 11.9 34 Sudoeste 51 Sudoeste 0.3 -- -- 90
2019-11-30 17:00:00 13.1 37 Sudoeste 54 Sudoeste 0 -- -- 82
2019-11-30 16:00:00 13.9 34 Sudoeste 48 Sudoeste 0 -- -- 84
2019-11-30 15:00:00 14 37 Sudoeste 50 Sudoeste 0 -- -- 81
2019-11-30 14:00:00 14 37 Sudoeste 57 Sudoeste 0 -- -- 80
2019-11-30 13:00:00 13 37 Sudoeste 49 Sudoeste 0.4 -- -- 86
2019-11-30 12:00:00 13.4 34 Sudoeste 43 Sudoeste 0 -- -- 81
2019-11-30 11:00:00 13.5 27 Sudoeste 45 Sudoeste 0 -- -- 81
2019-11-30 10:00:00 12.9 30 Sudoeste 38 Sudoeste 0 -- -- 88
2019-11-30 09:00:00 12.6 25 Sudoeste 33 Sudoeste 0 -- -- 92
2019-11-30 08:00:00 12.4 28 Sudoeste 34 Sudoeste 0 -- -- 91
2019-11-30 07:00:00 11.9 28 Sudoeste 49 Sudoeste 0 -- -- 88
2019-11-30 06:00:00 12.1 39 Sudoeste 53 Sudoeste 0 -- -- 95
2019-11-30 05:00:00 13.5 30 Sudoeste 44 Sudoeste 0 -- -- 95
2019-11-30 04:00:00 13.7 35 Sudoeste 56 Sudoeste 0 -- -- 96
2019-11-30 03:00:00 14.8 42 Sudoeste 67 Sudoeste 0.1 -- -- 96
2019-11-30 02:00:00 15.2 46 Sudoeste 73 Sudoeste 1.5 -- -- 96
2019-11-30 01:00:00 15.4 54 Sudoeste 72 Sudoeste 0.1 -- -- 96
2019-11-30 00:00:00 15.7 53 Sudoeste 69 Sudoeste 0.8 -- -- 95
2019-11-29 23:00:00 15.7 49 Sur 67 Sur 1.2 -- -- 95
2019-11-29 22:00:00 14.9 36 Sur 57 Sur 0 -- -- 95
2019-11-29 21:00:00 14.5 31 Sur 48 Sur 0 -- -- 95
2019-11-29 20:00:00 14.6 32 Sur 42 Sur 0 -- -- 92
2019-11-29 19:00:00 14.4 25 Sur 38 Sur 0 -- -- 92
2019-11-29 18:00:00 14.2 26 Sur 36 Sur 0 -- -- 89
2019-11-29 17:00:00 14.8 19 Sur 31 Sur 0 -- -- 81
2019-11-29 16:00:00 15.6 18 Sur 27 Sur 0 -- -- 76
2019-11-29 15:00:00 16.7 18 Sur 25 Sur 0 -- -- 76
2019-11-29 14:00:00 16.6 19 Sudoeste 28 Sudoeste 0 -- -- 76
2019-11-29 13:00:00 16.2 14 Sudoeste 20 Sudoeste 0 -- -- 83
2019-11-29 12:00:00 15.2 12 Sur 22 Sur 0 -- -- 85
2019-11-29 11:00:00 13.6 14 Sur 19 Sur 0 -- -- 89
2019-11-29 10:00:00 12.7 15 Sur 19 Sur 0 -- -- 92
2019-11-29 09:00:00 12.6 13 Sur 18 Sur 0 -- -- 95
2019-11-29 08:00:00 12.5 12 Sudeste 18 Sudeste 0 -- -- 95
2019-11-29 07:00:00 12.5 13 Sur 17 Sur 0 -- -- 95
2019-11-29 06:00:00 12.7 12 Sur 16 Sur 0 -- -- 95
2019-11-29 05:00:00 12.6 9 Sur 19 Sur 0 -- -- 95
2019-11-29 04:00:00 12.3 15 Sur 18 Sur 0 -- -- 95
2019-11-29 03:00:00 12.7 10 Sudoeste 14 Sur 0 -- -- 95
2019-11-29 02:00:00 12.6 9 Sur 14 Sur 0 -- -- 95
2019-11-29 01:00:00 12.8 11 Sur 14 Sur 0 -- -- 95
2019-11-29 00:00:00 13.3 10 Sur 17 Sur 0 -- -- 95
2019-11-28 23:00:00 13.3 6 Sur 7 Sur 0 -- -- 95
2019-11-28 22:00:00 13.1 5 Sudoeste 8 Sudoeste 0 -- -- 95
2019-11-28 21:00:00 13.3 2 Oeste 7 Oeste 0 -- -- 95
2019-11-28 20:00:00 13.3 3 Noroeste 13 Noroeste 0 -- -- 95
2019-11-28 19:00:00 13.7 10 Noroeste 21 Oeste 0 -- -- 95
2019-11-28 18:00:00 14 14 Oeste 41 Sudoeste 0 -- -- 95
2019-11-28 17:00:00 14.5 36 Sudoeste 55 Sudoeste 0.1 -- -- 95
2019-11-28 16:00:00 15 45 Sudoeste 70 Sudoeste 0.9 -- -- 95
2019-11-28 15:00:00 15.1 47 Sudoeste 71 Sudoeste 4.2 -- -- 95
2019-11-28 14:00:00 14.4 40 Sur 59 Sur 2.6 -- -- 95
2019-11-28 13:00:00 13.6 28 Sur 40 Sur 3 -- -- 95
2019-11-28 12:00:00 13.4 22 Sur 33 Sur 1.2 -- -- 95
2019-11-28 11:00:00 13.1 19 Sur 29 Sur 0 -- -- 95
2019-11-28 10:00:00 12.5 17 Sur 28 Sudoeste 0 -- -- 95
2019-11-28 09:00:00 12.7 20 Sudoeste 24 Sudoeste 0 -- -- 95
2019-11-28 08:00:00 12.5 19 Sudoeste 23 Sudoeste 0 -- -- 95
2019-11-28 07:00:00 12.5 17 Sudoeste 24 Sudoeste 0 -- -- 95
2019-11-28 06:00:00 12.5 19 Sudoeste 24 Sudoeste 0 -- -- 95
2019-11-28 05:00:00 12.6 19 Sudoeste 24 Sudoeste 0 -- -- 95
2019-11-28 04:00:00 12.5 19 Sudoeste 24 Sudoeste 0 -- -- 95
2019-11-28 03:00:00 12.6 20 Sudoeste 25 Sudoeste 0 -- -- 95
2019-11-28 02:00:00 12.7 19 Sudoeste 24 Sudoeste 0 -- -- 95
2019-11-28 01:00:00 13 18 Sudoeste 26 Sudoeste 0 -- -- 95
2019-11-28 00:00:00 13.1 22 Sudoeste 30 Sudoeste 0 -- -- 95
2019-11-27 23:00:00 12.9 24 Sudoeste 33 Sudoeste 0 -- -- 95
2019-11-27 22:00:00 13.2 25 Sudoeste 40 Sudoeste 0 -- -- 96
2019-11-27 21:00:00 13 30 Sudoeste 42 Sudoeste 0 -- -- 95
2019-11-27 20:00:00 13 30 Sudoeste 42 Sudoeste 0 -- -- 95
2019-11-27 19:00:00 13.2 28 Sudoeste 42 Sudoeste 0 -- -- 95
2019-11-27 18:00:00 13 33 Sudoeste 44 Sudoeste 0 -- -- 95
2019-11-27 17:00:00 13.1 34 Sudoeste 44 Sudoeste 0 -- -- 95
2019-11-27 16:00:00 13 28 Sudoeste 47 Oeste 1.9 -- -- 95
2019-11-27 15:00:00 13.4 33 Sudoeste 45 Sudoeste 0 -- -- 95
2019-11-27 14:00:00 13.5 35 Sudoeste 61 Sudoeste 0.2 -- -- 95
2019-11-27 06:00:00 13 32 Sudoeste 45 Sudoeste 0 -- -- 94
2019-11-27 05:00:00 13.1 33 Sudoeste 41 Sudoeste 0.5 -- -- 94
2019-11-27 04:00:00 12.9 33 Sudoeste 49 Sudoeste 0.6 -- -- 92
2019-11-27 03:00:00 13.1 32 Sudoeste 44 Sudoeste 0 -- -- 90
2019-11-27 02:00:00 13 34 Sudoeste 46 Sudoeste 0 -- -- 91
2019-11-27 01:00:00 13.1 35 Sudoeste 52 Sudoeste 0 -- -- 91
2019-11-27 00:00:00 13.4 40 Sudoeste 56 Sudoeste 0 -- -- 91
2019-11-26 23:00:00 13.2 45 Sudoeste 61 Sudoeste 0 -- -- 92
2019-11-26 22:00:00 13 49 Sudoeste 71 Sudoeste 0.7 -- -- 89
2019-11-26 21:00:00 13.4 47 Sudoeste 59 Sudoeste 0 -- -- 82
2019-11-26 20:00:00 12.9 42 Sudoeste 70 Sudoeste 0 -- -- 82
2019-11-26 19:00:00 13.1 46 Sudoeste 72 Sudoeste 0 -- -- 81
2019-11-26 18:00:00 13.1 57 Sudoeste 77 Sudoeste 0 -- -- 81
2019-11-26 17:00:00 13.5 51 Sudoeste 78 Sudoeste 0.3 -- -- 91
2019-11-26 16:00:00 13.1 65 Sudoeste 87 Sudoeste 0.2 -- -- 91
2019-11-26 15:00:00 14 55 Sudoeste 86 Sudoeste 0.8 -- -- 95
2019-11-26 14:00:00 14.9 59 Sudoeste 90 Sur 2 -- -- 94
2019-11-26 13:00:00 15.2 57 Sur 87 Sur 0 -- -- 93
2019-11-26 12:00:00 15.4 57 Sur 82 Sur 0 -- -- 93
2019-11-26 11:00:00 15.3 51 Sur 72 Sudoeste 0.1 -- -- 93
2019-11-26 10:00:00 14.7 48 Sudoeste 65 Sudoeste 0 -- -- 93
2019-11-26 09:00:00 14.9 48 Sudoeste 71 Sur 0.6 -- -- 95
2019-11-26 08:00:00 15.2 50 Sudoeste 68 Sur 0 -- -- 95
2019-11-26 07:00:00 15.2 50 Sudoeste 64 Sudoeste 0 -- -- 95
2019-11-26 06:00:00 15.1 46 Sudoeste 71 Sudoeste 0 -- -- 95
2019-11-26 05:00:00 15.1 50 Sudoeste 64 Sudoeste 0 -- -- 95
2019-11-26 04:00:00 15.3 48 Sudoeste 64 Sudoeste 0 -- -- 95
2019-11-26 03:00:00 15.5 51 Sudoeste 69 Sudoeste 0 -- -- 95
2019-11-26 02:00:00 15.5 51 Sudoeste 78 Sudoeste 0.1 -- -- 95
2019-11-26 01:00:00 15.9 61 Sudoeste 82 Sudoeste 0.5 -- -- 95
2019-11-26 00:00:00 14.8 57 Sur 81 Sur 1.2 -- -- 95
2019-11-25 23:00:00 14.8 51 Sur 79 Sur 0.6 -- -- 95
2019-11-25 22:00:00 14.8 54 Sur 80 Sur 0.2 -- -- 95
2019-11-25 21:00:00 14.7 49 Sur 73 Sur 0 -- -- 92
2019-11-25 20:00:00 14.5 47 Sur 64 Sur 0 -- -- 90
2019-11-25 19:00:00 14.5 40 Sur 62 Sur 0 -- -- 91
2019-11-25 18:00:00 14.2 39 Sur 59 Sur 0 -- -- 88
2019-11-25 17:00:00 14.7 37 Sur 49 Sur 0 -- -- 86
2019-11-25 16:00:00 14.8 32 Sur 46 Sudoeste 0 -- -- 84
2019-11-25 15:00:00 14.2 31 Sur 42 Sur 0 -- -- 86
2019-11-25 14:00:00 15.4 30 Sudoeste 38 Sudoeste 0 -- -- 83
2019-11-25 13:00:00 14.5 26 Sudoeste 35 Sudoeste 0 -- -- 91
2019-11-25 12:00:00 13.8 23 Sudoeste 32 Sudoeste 0 -- -- 95
2019-11-25 11:00:00 13.6 24 Sudoeste 38 Sudoeste 0 -- -- 95
2019-11-25 10:00:00 13.1 23 Sudoeste 31 Sudoeste 0 -- -- 95
2019-11-25 09:00:00 12.5 24 Sudoeste 42 Sudoeste 0.1 -- -- 95
2019-11-25 08:00:00 13.2 23 Sudoeste 43 Sudoeste 0 -- -- 95
2019-11-25 07:00:00 13.1 25 Sudoeste 42 Sudoeste 0 -- -- 95
2019-11-25 06:00:00 13.2 26 Sudoeste 38 Sudoeste 0 -- -- 95
2019-11-25 05:00:00 13.4 28 Sudoeste 35 Sudoeste 0 -- -- 95
2019-11-25 04:00:00 13.2 27 Sudoeste 50 Sudoeste 3 -- -- 95
2019-11-25 03:00:00 14 34 Sudoeste 53 Sur 0.6 -- -- 95
2019-11-25 02:00:00 13.6 33 Sudoeste 43 Sudoeste 0 -- -- 95
2019-11-25 01:00:00 13.8 34 Sudoeste 56 Sudoeste 0.2 -- -- 95
2019-11-25 00:00:00 14.1 33 Sudoeste 48 Sudoeste 0 -- -- 95
2019-11-24 23:00:00 14.2 39 Sudoeste 63 Sudoeste 0 -- -- 95
2019-11-24 22:00:00 15.1 45 Sudoeste 60 Sudoeste 0 -- -- 95
2019-11-24 21:00:00 15.2 42 Sudoeste 55 Sudoeste 0 -- -- 95
2019-11-24 20:00:00 15.4 46 Sudoeste 60 Sudoeste 0 -- -- 95
2019-11-24 19:00:00 15.3 46 Sudoeste 58 Sudoeste 0 -- -- 95
2019-11-24 18:00:00 15 42 Sudoeste 64 Sur 0 -- -- 95
2019-11-24 17:00:00 14.9 39 Sudoeste 80 Sudoeste 1.6 -- -- 95
2019-11-24 16:00:00 14 46 Sur 78 Sur 2.1 -- -- 95
2019-11-24 15:00:00 13.6 54 Sur 79 Sur 0.8 -- -- 95
2019-11-24 14:00:00 13.2 48 Sur 72 Sur 0.3 -- -- 95
2019-11-24 13:00:00 12.9 47 Sur 72 Sur 0.1 -- -- 95
2019-11-24 12:00:00 13 41 Sur 61 Sur 0.6 -- -- 95
2019-11-24 11:00:00 12.9 42 Sur 63 Sur 0.1 -- -- 94
2019-11-24 10:00:00 12.7 39 Sur 61 Sur 0.1 -- -- 91
2019-11-24 09:00:00 12.9 34 Sur 52 Sur 0 -- -- 85
2019-11-24 08:00:00 12.8 33 Sur 44 Sur 0 -- -- 85
2019-11-24 07:00:00 12.3 24 Sur 35 Sur 0 -- -- 85
2019-11-24 06:00:00 12.3 24 Sur 35 Sudoeste 0 -- -- 85
2019-11-24 05:00:00 12.1 23 Sudoeste 31 Sudoeste 0 -- -- 85
2019-11-24 04:00:00 12.4 24 Sudoeste 35 Sudoeste 0 -- -- 81
2019-11-24 03:00:00 12.2 29 Sudoeste 37 Sudoeste 0 -- -- 81
2019-11-24 02:00:00 12 22 Sudoeste 27 Sudoeste 0 -- -- 84
2019-11-24 01:00:00 11.4 19 Sudoeste 24 Sudoeste 0 -- -- 84
2019-11-24 00:00:00 11.7 19 Sudoeste 26 Oeste 0 -- -- 78
2019-11-23 23:00:00 12 20 Oeste 29 Oeste 0 -- -- 79
2019-11-23 22:00:00 11.8 19 Oeste 27 Oeste 0 -- -- 80
2019-11-23 21:00:00 12 17 Oeste 28 Oeste 0 -- -- 80
2019-11-23 20:00:00 12.1 21 Oeste 28 Oeste 0 -- -- 84
2019-11-23 19:00:00 12.1 18 Noroeste 36 Noroeste 0 -- -- 84
2019-11-23 18:00:00 12.5 14 Noroeste 36 Noroeste 0 -- -- 83
2019-11-23 17:00:00 13.2 23 Oeste 36 Noroeste 0 -- -- 81
2019-11-23 16:00:00 13.4 24 Noroeste 40 Noroeste 0 -- -- 79
2019-11-23 15:00:00 13.8 26 Noroeste 39 Noroeste 0 -- -- 84
2019-11-23 14:00:00 13.6 19 Noroeste 45 Noroeste 0.7 -- -- 85
2019-11-23 13:00:00 14.1 25 Noroeste 33 Noroeste 0 -- -- 79
2019-11-23 12:00:00 12.5 23 Noroeste 33 Noroeste 0 -- -- 80
2019-11-23 11:00:00 12.3 21 Noroeste 35 Noroeste 0 -- -- 81
2019-11-23 10:00:00 12.2 25 Noroeste 40 Noroeste 0 -- -- 80
2019-11-23 09:00:00 11.7 26 Noroeste 42 Noroeste 0 -- -- 81
2019-11-23 08:00:00 11.6 29 Noroeste 43 Noroeste 0.9 -- -- 81
2019-11-23 07:00:00 11.6 24 Noroeste 50 Noroeste 1.2 -- -- 85
2019-11-23 06:00:00 11.6 28 Noroeste 47 Noroeste 0.3 -- -- 82
2019-11-23 05:00:00 11.2 29 Noroeste 53 Norte 0.2 -- -- 81
2019-11-23 04:00:00 11.4 26 Noroeste 55 Noroeste 0 -- -- 80
2019-11-23 03:00:00 10.8 28 Noroeste 57 Noroeste 0.2 -- -- 80
2019-11-23 02:00:00 11 39 Noroeste 62 Noroeste 0.2 -- -- 79
2019-11-23 01:00:00 11.8 36 Noroeste 63 Noroeste 0 -- -- 71
2019-11-23 00:00:00 11.1 37 Noroeste 69 Noroeste 0 -- -- 82
2019-11-22 23:00:00 11.2 37 Noroeste 64 Noroeste 0.1 -- -- 83
2019-11-22 22:00:00 10.9 40 Noroeste 78 Norte 0.2 -- -- 85
2019-11-22 21:00:00 11 49 Noroeste 78 Noroeste 0.2 -- -- 88
2019-11-22 20:00:00 11.2 57 Noroeste 78 Noroeste 0.2 -- -- 90
2019-11-22 19:00:00 11.6 54 Oeste 77 Oeste 0.3 -- -- 93
2019-11-22 18:00:00 12.3 53 Oeste 82 Oeste 0.1 -- -- 93
2019-11-22 17:00:00 12.5 58 Oeste 82 Oeste 0 -- -- 92
2019-11-22 16:00:00 12.5 56 Oeste 78 Sudoeste 0.9 -- -- 94
2019-11-22 15:00:00 12.8 45 Sudoeste 81 Sudoeste 3.1 -- -- 95
2019-11-22 14:00:00 12.4 39 Sudoeste 61 Sudoeste 1 -- -- 92
2019-11-22 13:00:00 12.4 39 Sudoeste 66 Sudoeste 0.5 -- -- 92
2019-11-22 12:00:00 12.5 45 Sudoeste 66 Oeste 2.8 -- -- 89
2019-11-22 11:00:00 13 45 Oeste 67 Oeste 0 -- -- 94
2019-11-22 10:00:00 13.1 50 Oeste 78 Sudoeste 0.3 -- -- 95
2019-11-22 09:00:00 14.4 54 Sudoeste 84 Sudoeste 2.2 -- -- 96
2019-11-22 08:00:00 14.5 46 Sudoeste 62 Sudoeste 2.7 -- -- 96
2019-11-22 07:00:00 14.3 47 Sudoeste 73 Sur 3.6 -- -- 96
2019-11-22 06:00:00 13.9 49 Sur 69 Sur 2.9 -- -- 96
2019-11-22 05:00:00 13.2 50 Sur 89 Sur 4.1 -- -- 95
2019-11-22 04:00:00 12.1 58 Sur 90 Sur 2 -- -- 95
2019-11-22 03:00:00 12 56 Sur 85 Sur 0.8 -- -- 93
2019-11-22 02:00:00 11.5 40 Sur 65 Sur 2.3 -- -- 93
2019-11-22 01:00:00 11.8 38 Sur 55 Sur 1 -- -- 92
2019-11-22 00:00:00 12.2 33 Sur 47 Sur 0 -- -- 87
2019-11-21 23:00:00 12 28 Sur 41 Sur 0 -- -- 81
2019-11-21 22:00:00 12.2 31 Sur 43 Sudoeste 0 -- -- 78
2019-11-21 21:00:00 11.6 31 Sur 48 Sudoeste 0 -- -- 85
2019-11-21 20:00:00 11.5 21 Sur 26 Sur 0 -- -- 86
2019-11-21 19:00:00 11.2 18 Sur 37 Sudoeste 0 -- -- 85
2019-11-21 18:00:00 11.4 24 Sudoeste 47 Sudoeste 0 -- -- 79
2019-11-21 17:00:00 12.5 24 Sudoeste 41 Sudoeste 0 -- -- 79
2019-11-21 16:00:00 13.5 24 Sudoeste 48 Sudoeste 0 -- -- 77
2019-11-21 15:00:00 13.3 26 Sudoeste 39 Oeste 0 -- -- 67
2019-11-21 14:00:00 14.2 30 Sudoeste 38 Sudoeste 0 -- -- 68
2019-11-21 13:00:00 14.3 31 Sudoeste 39 Sudoeste 0 -- -- 69
2019-11-21 12:00:00 13.6 30 Sudoeste 39 Sudoeste 0 -- -- 71
2019-11-21 11:00:00 13.2 27 Sudoeste 33 Sudoeste 0 -- -- 77
2019-11-21 10:00:00 11.7 26 Sudoeste 40 Oeste 0 -- -- 79
2019-11-21 09:00:00 11.9 30 Oeste 42 Oeste 0 -- -- 76
2019-11-21 08:00:00 -- -- -- -- -- -- -- -- --
2019-11-21 07:00:00 -- -- -- -- -- -- -- -- --
2019-11-21 06:00:00 -- -- -- -- -- -- -- -- --
2019-11-21 05:00:00 -- -- -- -- -- -- -- -- --
2019-11-21 04:00:00 -- -- -- -- -- -- -- -- --
2019-11-21 03:00:00 -- -- -- -- -- -- -- -- --
2019-11-21 02:00:00 -- -- -- -- -- -- -- -- --
2019-11-21 01:00:00 -- -- -- -- -- -- -- -- --
2019-11-21 00:00:00 -- -- -- -- -- -- -- -- --
2019-11-20 23:00:00 -- -- -- -- -- -- -- -- --
2019-11-20 22:00:00 -- -- -- -- -- -- -- -- --
2019-11-20 21:00:00 -- -- -- -- -- -- -- -- --
2019-11-20 20:00:00 -- -- -- -- -- -- -- -- --
2019-11-20 19:00:00 10.1 17 Sur 24 Sur 0 -- -- 91
2019-11-20 18:00:00 10.8 15 Sudoeste 25 Oeste 0 -- -- 89
2019-11-20 17:00:00 11.3 12 Sudoeste 47 Oeste 0.5 -- -- 88
2019-11-20 16:00:00 12.8 22 Sur 38 Sur 0 -- -- 84
2019-11-20 15:00:00 11.7 29 Sur 41 Sur 0 -- -- 87
2019-11-20 14:00:00 12.7 28 Sur 46 Sur 0 -- -- 87
2019-11-20 13:00:00 11.5 35 Sur 47 Sur 0 -- -- 91
2019-11-20 12:00:00 11.4 28 Sur 41 Sur 0 -- -- 94
2019-11-20 11:00:00 10.6 23 Sur 53 Sur 1.8 -- -- 94
2019-11-20 10:00:00 10.1 23 Sur 34 Sudoeste 0.2 -- -- 94
2019-11-20 09:00:00 9.6 18 Sur 44 Sudoeste 7.5 -- -- 94
2019-11-20 08:00:00 10.6 26 Sur 48 Sur 0.9 -- -- 92
2019-11-20 07:00:00 10.7 28 Sur 44 Sur 0 -- -- 90
2019-11-20 06:00:00 10.8 30 Sur 42 Sur 0 -- -- 90
2019-11-20 05:00:00 10.1 26 Sur 35 Sur 0 -- -- 84
2019-11-20 04:00:00 9.6 22 Sur 35 Sur 0 -- -- 81
2019-11-20 03:00:00 9.6 24 Sur 33 Sur 0 -- -- 80
2019-11-20 02:00:00 9.4 24 Sur 33 Sur 0 -- -- 80
2019-11-20 01:00:00 9.4 21 Sudeste 31 Sur 0 -- -- 78
2019-11-20 00:00:00 9.5 18 Sur 21 Sur 0 -- -- 79
2019-11-19 23:00:00 9.1 15 Sur 19 Sur 0 -- -- 86
2019-11-19 22:00:00 9.4 12 Sur 15 Sur 0 -- -- 87
2019-11-19 21:00:00 9.5 11 Sur 14 Sudeste 0 -- -- 91
2019-11-19 20:00:00 9.8 9 Sudeste 14 Sur 0 -- -- 92
2019-11-19 19:00:00 10.6 10 Sudeste 13 Sur 0 -- -- 92
2019-11-19 18:00:00 10.9 6 Sudeste 13 Sudeste 0 -- -- 94
2019-11-19 17:00:00 11.6 8 Sudeste 11 Nordeste 0 -- -- 95
2019-11-19 16:00:00 11.5 4 Nordeste 21 Sudoeste 0.8 -- -- 95
2019-11-19 15:00:00 11.2 18 Sudoeste 44 Sur 1.3 -- -- 95
2019-11-19 14:00:00 11.1 36 Sur 57 Sur 0.2 -- -- 92
2019-11-19 13:00:00 10.8 26 Sur 62 Sur 0 -- -- 93
2019-11-19 12:00:00 10.8 41 Sur 59 Sur 0 -- -- 92
2019-11-19 11:00:00 10.4 37 Sur 54 Sur 0 -- -- 92
2019-11-19 10:00:00 10.2 33 Sur 52 Sur 0.1 -- -- 92
2019-11-19 09:00:00 10.4 30 Sur 47 Sur 0 -- -- 91
2019-11-19 08:00:00 10.5 34 Sur 48 Sur 0 -- -- 91
2019-11-19 07:00:00 10.4 32 Sur 45 Sur 0.4 -- -- 91
2019-11-19 06:00:00 10.8 30 Sur 43 Sur 0.4 -- -- 88
2019-11-19 05:00:00 11.2 27 Sur 35 Sur 0 -- -- 82
2019-11-19 04:00:00 10.7 26 Sur 37 Sur 0 -- -- 81
2019-11-19 03:00:00 10.4 24 Sur 33 Sur 0 -- -- 81
2019-11-19 02:00:00 10 19 Sur 25 Sur 0 -- -- 81
2019-11-19 01:00:00 10.1 15 Sur 21 Sudeste 0 -- -- 80
2019-11-19 00:00:00 10.2 16 Sur 19 Sur 0 -- -- 80
2019-11-18 23:00:00 10 13 Sudeste 19 Sudeste 0 -- -- 81
2019-11-18 22:00:00 10.3 12 Sudeste 15 Sudeste 0 -- -- 80
2019-11-18 21:00:00 10.2 10 Sudeste 16 Sur 0 -- -- 79
2019-11-18 20:00:00 11.4 4 Sur 8 Sudeste 0 -- -- 71
2019-11-18 19:00:00 11.4 2 Sudeste 3 Sudeste 0 -- -- 69
2019-11-18 18:00:00 12.5 0 Calma 8 Norte 0 -- -- 67
2019-11-18 17:00:00 13.8 4 Noroeste 8 Norte 0 -- -- 66
2019-11-18 16:00:00 13.8 7 Norte 10 Norte 0 -- -- 66
2019-11-18 15:00:00 14.4 6 Norte 11 Norte 0 -- -- 66
2019-11-18 14:00:00 14.1 10 Norte 17 Norte 0 -- -- 66
2019-11-18 13:00:00 14.6 11 Nordeste -- -- 0 -- -- 67
2019-11-18 12:00:00 13.5 -- -- -- -- 0 -- -- 69
2019-11-18 11:00:00 12.6 -- -- -- -- 0 -- -- 71
2019-11-18 10:00:00 11.7 -- -- -- -- 0 -- -- 73
2019-11-18 09:00:00 11.6 -- -- -- -- 0 -- -- 75
2019-11-18 08:00:00 11.6 -- -- -- -- 0 -- -- 71
2019-11-18 07:00:00 11.3 -- -- -- -- 0 -- -- 71
2019-11-18 06:00:00 11.3 -- -- -- -- 0 -- -- 70
2019-11-18 05:00:00 11.3 -- -- -- -- 0 -- -- 72
2019-11-18 04:00:00 11.3 -- -- -- -- 0 -- -- 79
2019-11-18 03:00:00 11.1 -- -- -- -- 0 -- -- 80
2019-11-18 02:00:00 11.2 -- -- -- -- 0.1 -- -- 85
2019-11-18 01:00:00 11.3 -- -- -- -- 0.1 -- -- 87
2019-11-18 00:00:00 11.3 -- -- -- -- 0.5 -- -- 88
2019-11-17 23:00:00 10.8 -- -- -- -- 0.3 -- -- 84
2019-11-17 22:00:00 11.5 -- -- -- -- 0 -- -- 82
2019-11-17 21:00:00 11.8 -- -- -- -- 0 -- -- 82
2019-11-17 20:00:00 12.3 -- -- -- -- 0 -- -- 78
2019-11-17 19:00:00 12 -- -- -- -- 0 -- -- 76
2019-11-17 18:00:00 11.9 -- -- -- -- 0 -- -- 78
2019-11-17 17:00:00 12.2 -- -- -- -- 0 -- -- 75
2019-11-17 16:00:00 12.9 -- -- -- -- 0 -- -- 73
2019-11-17 15:00:00 12.8 -- -- -- -- 0 -- -- 66
2019-11-17 14:00:00 12.6 -- -- -- -- 0 -- -- 70
2019-11-17 13:00:00 11.8 -- -- -- -- 0 -- -- 77
2019-11-17 12:00:00 12.2 -- -- -- -- 0 -- -- 78
2019-11-17 11:00:00 11.6 -- -- -- -- 0 -- -- 84
2019-11-17 10:00:00 12.2 0 Calma -- -- 0 -- -- 81
2019-11-17 09:00:00 11.6 0 Calma -- -- 0 -- -- 83
2019-11-17 08:00:00 11.1 0 Calma -- -- 0 -- -- 93
2019-11-17 07:00:00 11.4 0 Calma -- -- 0.7 -- -- 94
2019-11-17 06:00:00 11.7 0 Calma -- -- 1.7 -- -- 94
2019-11-17 05:00:00 11.9 0 Calma -- -- 0.7 -- -- 95
2019-11-17 04:00:00 12 0 Calma -- -- 1.3 -- -- 95
2019-11-17 03:00:00 11.5 0 Calma -- -- 0 -- -- 95
2019-11-17 02:00:00 11.5 0 Calma -- -- 0 -- -- 95
2019-11-17 01:00:00 11.3 0 Calma -- -- 0 -- -- 95
2019-11-17 00:00:00 11.5 0 Calma -- -- 0 -- -- 95
2019-11-16 23:00:00 11.2 0 Calma 0 Calma 0 -- -- 95
2019-11-16 22:00:00 11.1 0 Calma -- -- 0 -- -- 95
2019-11-16 21:00:00 10.8 0 Calma -- -- 0.1 -- -- 94
2019-11-16 20:00:00 11 0 Calma -- -- 0.2 -- -- 93
2019-11-16 19:00:00 10.8 0 Calma -- -- 0.4 -- -- 92
2019-11-16 18:00:00 10.5 0 Calma -- -- 0.3 -- -- 87
2019-11-16 17:00:00 10.8 0 Calma -- -- 0 -- -- 81
2019-11-16 16:00:00 11.4 0 Calma -- -- 0 -- -- 76
2019-11-16 15:00:00 11.8 0 Calma -- -- 0 -- -- 69
2019-11-16 14:00:00 12.3 0 Calma -- -- 0 -- -- 66
2019-11-16 13:00:00 12.3 0 Calma 0 Calma 0 -- -- 60
2019-11-16 12:00:00 13.2 0 Calma -- -- 0 -- -- 57
2019-11-16 11:00:00 11.6 0 Calma -- -- 0 -- -- 59
2019-11-16 10:00:00 11 0 Calma -- -- 0 -- -- 58
2019-11-16 09:00:00 10.8 0 Calma 0 Calma 0 -- -- 61
2019-11-16 08:00:00 10.7 0 Calma -- -- 0 -- -- 57
2019-11-16 07:00:00 10.7 0 Calma 24 Noroeste 0 -- -- 60
2019-11-16 06:00:00 10.7 19 Norte 30 Norte 0 -- -- 60
2019-11-16 05:00:00 10.6 22 Norte 36 Norte 0 -- -- 60
2019-11-16 04:00:00 10.9 28 Norte 40 Norte 0 -- -- 63
2019-11-16 03:00:00 11.1 33 Norte 41 Norte 0 -- -- 64
2019-11-16 02:00:00 10.8 28 Norte 47 Norte 0 -- -- 66
2019-11-16 01:00:00 10.6 35 Norte 49 Norte 0 -- -- 68
2019-11-16 00:00:00 10.2 37 Norte 55 Norte 0 -- -- 69